Time;durP1;ratioP1;P1;durP2;ratioP2;P2;SDS_P1;SDS_P2;PMS_P1;PMS_P2;Temp;Humidity;BMP_temperature;BMP_pressure;BME280_temperature;BME280_humidity;BME280_pressure;Samples;Min_cycle;Max_cycle;Signal;HPM_P1;HPM_P2
2022/05/30 00:01:43;;;;;;;3.60;1.00;;;;;;;;;;5001844;28;20731;-64
2022/05/30 00:04:11;;;;;;;2.53;1.00;;;;;;;;;;5003825;28;20635;-64
2022/05/30 00:06:38;;;;;;;3.40;1.10;;;;;;;;;;5003244;28;20705;-64
2022/05/30 00:09:05;;;;;;;2.10;0.90;;;;;;;;;;5004405;28;20676;-64
2022/05/30 00:11:32;;;;;;;3.13;1.20;;;;;;;;;;5003558;28;20254;-64
2022/05/30 00:13:59;;;;;;;2.50;0.93;;;;;;;;;;5006053;28;20733;-65
2022/05/30 00:16:27;;;;;;;1.57;0.77;;;;;;;;;;4995157;28;20216;-64
2022/05/30 00:18:54;;;;;;;2.00;1.00;;;;;;;;;;5006880;28;20543;-64
2022/05/30 00:21:22;;;;;;;1.87;1.10;;;;;;;;;;4998994;28;20208;-64
2022/05/30 00:23:53;;;;;;;2.73;1.33;;;;;;;;;;5002921;28;20200;-64
2022/05/30 00:26:21;;;;;;;2.07;0.83;;;;;;;;;;4997633;28;20184;-64
2022/05/30 00:28:48;;;;;;;1.57;0.80;;;;;;;;;;5007509;28;20219;-64
2022/05/30 00:31:16;;;;;;;2.07;1.10;;;;;;;;;;5000480;28;20196;-64
2022/05/30 00:33:47;;;;;;;1.90;1.00;;;;;;;;;;5005772;28;20200;-65
2022/05/30 00:36:14;;;;;;;2.40;1.20;;;;;;;;;;5004538;28;20258;-64
2022/05/30 00:38:42;;;;;;;2.83;1.00;;;;;;;;;;5006184;28;20207;-64
2022/05/30 00:41:09;;;;;;;2.47;0.97;;;;;;;;;;4993969;28;20232;-64
2022/05/30 00:43:37;;;;;;;2.03;1.10;;;;;;;;;;5005605;28;20744;-64
2022/05/30 00:46:11;;;;;;;1.53;0.80;;;;;;;;;;5002343;28;20270;-64
2022/05/30 00:48:40;;;;;;;1.37;0.80;;;;;;;;;;4999763;28;20201;-64
2022/05/30 00:51:09;;;;;;;1.67;0.80;;;;;;;;;;4997049;28;20203;-64
2022/05/30 00:53:38;;;;;;;2.10;1.00;;;;;;;;;;5005959;28;20278;-64
2022/05/30 00:56:06;;;;;;;3.83;1.30;;;;;;;;;;5002053;28;20205;-64
2022/05/30 00:58:34;;;;;;;5.43;1.20;;;;;;;;;;5005306;28;20191;-64
2022/05/30 01:01:02;;;;;;;1.73;1.00;;;;;;;;;;4996907;28;20244;-64
2022/05/30 01:06:30;;;;;;;3.80;1.27;;;;;;;;;;5009655;28;20520;-64
2022/05/30 01:08:58;;;;;;;1.57;1.13;;;;;;;;;;5004085;28;20692;-64
2022/05/30 01:11:25;;;;;;;2.23;1.00;;;;;;;;;;5001272;28;20266;-64
2022/05/30 01:13:52;;;;;;;1.67;0.80;;;;;;;;;;5002672;28;20216;-64
2022/05/30 01:16:22;;;;;;;2.13;1.03;;;;;;;;;;4999335;28;20207;-64
2022/05/30 01:18:52;;;;;;;2.73;1.00;;;;;;;;;;5002585;28;20199;-64
2022/05/30 01:21:34;;;;;;;2.83;1.07;;;;;;;;;;5002567;28;20237;-65
2022/05/30 01:24:20;;;;;;;2.50;1.00;;;;;;;;;;5005629;28;20204;-64
2022/05/30 01:27:07;;;;;;;1.87;0.90;;;;;;;;;;5009612;28;20220;-63
2022/05/30 01:29:45;;;;;;;2.63;1.27;;;;;;;;;;5009492;28;20196;-64
2022/05/30 01:32:21;;;;;;;1.93;0.80;;;;;;;;;;5001392;28;20218;-64
2022/05/30 01:34:51;;;;;;;1.77;1.10;;;;;;;;;;5008762;28;20206;-64
2022/05/30 01:37:24;;;;;;;1.83;1.20;;;;;;;;;;4996528;28;20565;-64
2022/05/30 01:39:55;;;;;;;1.90;0.97;;;;;;;;;;5008636;28;20619;-64
2022/05/30 01:42:25;;;;;;;1.83;1.03;;;;;;;;;;5002841;28;20259;-64
2022/05/30 01:44:57;;;;;;;2.53;1.10;;;;;;;;;;5006554;28;21383;-64
2022/05/30 01:47:24;;;;;;;2.40;1.10;;;;;;;;;;5009259;28;20254;-64
2022/05/30 01:49:52;;;;;;;2.97;1.10;;;;;;;;;;5009228;28;20191;-64
2022/05/30 01:52:20;;;;;;;2.80;1.00;;;;;;;;;;5000697;28;20215;-65
2022/05/30 01:54:47;;;;;;;1.53;0.90;;;;;;;;;;5009596;28;20721;-64
2022/05/30 01:57:14;;;;;;;2.47;0.67;;;;;;;;;;5006009;28;20196;-64
2022/05/30 01:59:41;;;;;;;2.13;0.90;;;;;;;;;;5009057;28;20503;-64
2022/05/30 02:02:11;;;;;;;2.27;1.00;;;;;;;;;;5003967;28;20270;-64
2022/05/30 02:04:38;;;;;;;2.00;1.03;;;;;;;;;;5004964;28;20699;-64
2022/05/30 02:07:06;;;;;;;2.53;1.00;;;;;;;;;;5004572;28;20278;-64
2022/05/30 02:09:33;;;;;;;2.10;1.07;;;;;;;;;;4999479;28;20218;-64
2022/05/30 02:12:00;;;;;;;2.57;1.20;;;;;;;;;;5007501;28;20187;-64
2022/05/30 02:14:27;;;;;;;1.90;1.30;;;;;;;;;;5007290;28;20199;-65
2022/05/30 02:17:01;;;;;;;3.40;1.03;;;;;;;;;;5002947;28;20282;-64
2022/05/30 02:19:32;;;;;;;3.10;1.00;;;;;;;;;;5006650;28;20829;-65
2022/05/30 02:22:00;;;;;;;1.57;1.00;;;;;;;;;;5005397;28;20266;-64
2022/05/30 02:24:27;;;;;;;2.70;1.10;;;;;;;;;;5007362;28;20196;-64
2022/05/30 02:26:54;;;;;;;2.03;0.93;;;;;;;;;;5008959;28;20208;-64
2022/05/30 02:29:22;;;;;;;1.43;0.97;;;;;;;;;;5012312;28;20226;-64
2022/05/30 02:31:49;;;;;;;1.93;1.00;;;;;;;;;;5001785;28;20316;-64
2022/05/30 02:37:02;;;;;;;2.50;0.90;;;;;;;;;;5004662;28;20212;-64
2022/05/30 02:39:30;;;;;;;1.93;1.00;;;;;;;;;;5004099;28;20301;-65
2022/05/30 02:41:57;;;;;;;2.30;0.97;;;;;;;;;;5005628;28;20223;-64
2022/05/30 02:44:25;;;;;;;1.93;0.70;;;;;;;;;;5000932;28;20261;-64
2022/05/30 02:46:54;;;;;;;2.60;0.90;;;;;;;;;;5006265;28;20184;-64
2022/05/30 02:49:22;;;;;;;2.50;1.07;;;;;;;;;;4998429;28;20210;-64
2022/05/30 02:51:49;;;;;;;2.47;1.10;;;;;;;;;;5004936;28;20199;-64
2022/05/30 02:54:17;;;;;;;1.70;0.80;;;;;;;;;;5006454;28;20208;-64
2022/05/30 02:56:48;;;;;;;4.73;1.23;;;;;;;;;;5007075;28;20207;-64
2022/05/30 02:59:15;;;;;;;2.37;0.90;;;;;;;;;;4995621;28;20192;-65
2022/05/30 03:01:42;;;;;;;2.07;1.03;;;;;;;;;;4972033;28;1035988;-65
2022/05/30 03:04:10;;;;;;;1.60;1.00;;;;;;;;;;5001090;28;20208;-65
2022/05/30 03:06:37;;;;;;;2.20;1.03;;;;;;;;;;5007148;28;20200;-64
2022/05/30 03:09:05;;;;;;;1.80;1.00;;;;;;;;;;5005080;28;20305;-64
2022/05/30 03:11:33;;;;;;;1.87;0.93;;;;;;;;;;5008772;28;20207;-64
2022/05/30 03:14:00;;;;;;;2.63;0.97;;;;;;;;;;5007658;28;20262;-64
2022/05/30 03:16:27;;;;;;;1.93;0.93;;;;;;;;;;5005189;28;20212;-64
2022/05/30 03:18:54;;;;;;;2.57;0.90;;;;;;;;;;5005105;28;20250;-64
2022/05/30 03:21:24;;;;;;;2.10;1.00;;;;;;;;;;5005225;28;20709;-64
2022/05/30 03:23:54;;;;;;;2.73;1.10;;;;;;;;;;4995710;28;20255;-64
2022/05/30 03:26:24;;;;;;;1.70;1.00;;;;;;;;;;5012588;28;20212;-66
2022/05/30 03:28:54;;;;;;;1.03;0.87;;;;;;;;;;5002197;28;20211;-64
2022/05/30 03:31:25;;;;;;;1.77;0.87;;;;;;;;;;5001265;28;20260;-66
2022/05/30 03:33:53;;;;;;;2.07;0.90;;;;;;;;;;5006583;28;20196;-66
2022/05/30 03:36:30;;;;;;;1.57;1.07;;;;;;;;;;5004544;28;20219;-65
2022/05/30 03:38:57;;;;;;;3.00;1.03;;;;;;;;;;5006224;28;20200;-65
2022/05/30 03:41:30;;;;;;;1.70;0.90;;;;;;;;;;5005683;28;20285;-65
2022/05/30 03:44:01;;;;;;;1.67;0.80;;;;;;;;;;5002592;28;20227;-65
2022/05/30 03:46:32;;;;;;;1.73;1.00;;;;;;;;;;5001381;28;20648;-66
2022/05/30 03:49:04;;;;;;;1.73;0.80;;;;;;;;;;4998173;28;20211;-66
2022/05/30 03:51:38;;;;;;;2.30;0.97;;;;;;;;;;5004342;28;20218;-66
2022/05/30 03:54:09;;;;;;;2.07;0.97;;;;;;;;;;5004685;28;20267;-64
2022/05/30 03:56:41;;;;;;;2.07;0.90;;;;;;;;;;5006751;28;20222;-64
2022/05/30 03:59:10;;;;;;;2.00;1.10;;;;;;;;;;4997438;28;20200;-65
2022/05/30 04:01:37;;;;;;;2.30;1.10;;;;;;;;;;4996827;28;20224;-65
2022/05/30 04:04:05;;;;;;;2.70;1.10;;;;;;;;;;5000092;28;20582;-64
2022/05/30 04:06:32;;;;;;;3.13;1.30;;;;;;;;;;5020317;28;20219;-65
2022/05/30 04:08:59;;;;;;;2.17;1.03;;;;;;;;;;5021963;28;20223;-65
2022/05/30 04:11:26;;;;;;;2.27;1.00;;;;;;;;;;5002341;28;20200;-65
2022/05/30 04:13:54;;;;;;;1.90;1.00;;;;;;;;;;5006498;28;20374;-65
2022/05/30 04:16:21;;;;;;;2.93;1.10;;;;;;;;;;5004659;28;20215;-65
2022/05/30 04:18:49;;;;;;;2.07;1.10;;;;;;;;;;4999051;28;20614;-65
2022/05/30 04:21:16;;;;;;;2.20;1.10;;;;;;;;;;5001508;28;20196;-65
2022/05/30 04:23:43;;;;;;;1.80;0.90;;;;;;;;;;5004634;28;20196;-65
2022/05/30 04:26:12;;;;;;;2.33;1.17;;;;;;;;;;5006505;28;20196;-65
2022/05/30 04:28:39;;;;;;;1.90;1.13;;;;;;;;;;5000701;28;20275;-65
2022/05/30 04:31:07;;;;;;;2.50;1.17;;;;;;;;;;5003360;28;20204;-65
2022/05/30 04:33:34;;;;;;;1.70;0.93;;;;;;;;;;5001642;28;20247;-65
2022/05/30 04:36:03;;;;;;;1.70;1.00;;;;;;;;;;5004619;28;20216;-65
2022/05/30 04:38:30;;;;;;;2.53;1.07;;;;;;;;;;5005929;28;20510;-65
2022/05/30 04:40:57;;;;;;;1.70;1.17;;;;;;;;;;5000790;28;20216;-65
2022/05/30 04:43:24;;;;;;;1.97;0.90;;;;;;;;;;5004181;28;20351;-65
2022/05/30 04:46:10;;;;;;;3.07;1.13;;;;;;;;;;4999736;28;20196;-65
2022/05/30 04:48:37;;;;;;;2.17;1.10;;;;;;;;;;5001246;28;20200;-65
2022/05/30 04:51:04;;;;;;;1.47;0.77;;;;;;;;;;4994300;28;20684;-65
2022/05/30 04:53:32;;;;;;;1.87;1.00;;;;;;;;;;5000572;28;20668;-65
2022/05/30 04:55:59;;;;;;;1.33;0.80;;;;;;;;;;4997644;28;20263;-65
2022/05/30 04:58:32;;;;;;;1.63;0.90;;;;;;;;;;5004444;28;20214;-65
2022/05/30 05:01:00;;;;;;;2.30;1.13;;;;;;;;;;5004382;28;20694;-65
2022/05/30 05:03:31;;;;;;;2.03;1.10;;;;;;;;;;4998884;28;20250;-65
2022/05/30 05:06:02;;;;;;;2.40;1.10;;;;;;;;;;5000032;28;20273;-65
2022/05/30 05:08:33;;;;;;;4.20;0.90;;;;;;;;;;5004222;28;20207;-65
2022/05/30 05:11:12;;;;;;;2.47;1.33;;;;;;;;;;5002510;28;20691;-65
2022/05/30 05:13:40;;;;;;;2.70;1.03;;;;;;;;;;5004373;28;20585;-65
2022/05/30 05:16:07;;;;;;;1.73;1.03;;;;;;;;;;4993616;28;20216;-66
2022/05/30 05:18:35;;;;;;;1.70;1.13;;;;;;;;;;5003445;28;20609;-66
2022/05/30 05:21:02;;;;;;;3.00;1.23;;;;;;;;;;5000800;28;20200;-65
2022/05/30 05:23:30;;;;;;;9.07;1.20;;;;;;;;;;5002224;28;20212;-65
2022/05/30 05:25:57;;;;;;;3.30;1.30;;;;;;;;;;5006271;28;20638;-65
2022/05/30 05:28:24;;;;;;;1.63;1.07;;;;;;;;;;5005097;28;20274;-65
2022/05/30 05:30:52;;;;;;;2.47;1.60;;;;;;;;;;4994039;28;20189;-65
2022/05/30 05:33:19;;;;;;;2.17;1.20;;;;;;;;;;4992226;28;20940;-66
2022/05/30 05:35:47;;;;;;;3.73;1.43;;;;;;;;;;5002991;28;20677;-66
2022/05/30 05:38:14;;;;;;;16.17;5.30;;;;;;;;;;5004198;28;20200;-66
2022/05/30 05:40:45;;;;;;;21.03;6.77;;;;;;;;;;5000272;28;20216;-65
2022/05/30 05:43:12;;;;;;;20.47;7.07;;;;;;;;;;5002919;28;20215;-65
2022/05/30 05:45:41;;;;;;;22.40;7.10;;;;;;;;;;5005795;28;20208;-66
2022/05/30 05:48:09;;;;;;;16.40;6.13;;;;;;;;;;5005025;28;20265;-66
2022/05/30 05:50:43;;;;;;;20.87;6.53;;;;;;;;;;5007573;28;20231;-65
2022/05/30 05:53:11;;;;;;;21.30;6.33;;;;;;;;;;4990565;28;20208;-65
2022/05/30 05:55:38;;;;;;;18.83;6.97;;;;;;;;;;5003743;28;20242;-65
2022/05/30 05:58:06;;;;;;;17.87;6.37;;;;;;;;;;5009484;28;20254;-65
2022/05/30 06:00:34;;;;;;;16.60;5.73;;;;;;;;;;5007981;28;20231;-65
2022/05/30 06:03:01;;;;;;;12.30;4.70;;;;;;;;;;5007099;28;20211;-65
2022/05/30 06:05:32;;;;;;;11.63;4.50;;;;;;;;;;5008160;28;20750;-65
2022/05/30 06:08:04;;;;;;;12.80;5.27;;;;;;;;;;5008243;28;20211;-65
2022/05/30 06:11:05;;;;;;;15.30;4.80;;;;;;;;;;5008368;28;20203;-65
2022/05/30 06:13:27;;;;;;;11.17;4.83;;;;;;;;;;4995262;28;20200;-65
2022/05/30 06:15:56;;;;;;;9.30;4.07;;;;;;;;;;5001695;28;20223;-64
2022/05/30 06:18:25;;;;;;;14.70;4.83;;;;;;;;;;4997688;28;20786;-64
2022/05/30 06:21:00;;;;;;;11.30;4.33;;;;;;;;;;5007367;28;20207;-66
2022/05/30 06:23:30;;;;;;;10.13;4.00;;;;;;;;;;5008889;28;20215;-66
2022/05/30 06:26:01;;;;;;;17.97;4.20;;;;;;;;;;5007558;28;20227;-66
2022/05/30 06:28:31;;;;;;;15.57;4.67;;;;;;;;;;4993693;28;20223;-66
2022/05/30 06:31:01;;;;;;;16.43;4.30;;;;;;;;;;5006559;28;20213;-66
2022/05/30 06:33:29;;;;;;;10.47;4.37;;;;;;;;;;5006468;28;20223;-66
2022/05/30 06:36:03;;;;;;;18.97;5.43;;;;;;;;;;5006364;28;20250;-66
2022/05/30 06:38:36;;;;;;;29.77;9.05;;;;;;;;;;5006259;28;20440;-64
2022/05/30 06:41:15;;;;;;;39.37;8.87;;;;;;;;;;4999292;28;20204;-64
2022/05/30 06:43:54;;;;;;;36.13;9.30;;;;;;;;;;5007969;28;20200;-64
2022/05/30 06:46:21;;;;;;;27.00;8.97;;;;;;;;;;5006688;28;20216;-69
2022/05/30 06:48:55;;;;;;;27.80;7.70;;;;;;;;;;4995838;28;20204;-69
2022/05/30 06:51:27;;;;;;;22.03;7.60;;;;;;;;;;5002066;28;20215;-67
2022/05/30 06:53:57;;;;;;;29.97;7.27;;;;;;;;;;5007159;28;20207;-66
2022/05/30 06:56:31;;;;;;;26.17;7.83;;;;;;;;;;5005130;28;20210;-66
2022/05/30 06:59:03;;;;;;;23.57;6.47;;;;;;;;;;5006078;28;20816;-65
2022/05/30 07:01:34;;;;;;;20.77;7.00;;;;;;;;;;5001204;28;20258;-67
2022/05/30 07:04:06;;;;;;;15.40;5.90;;;;;;;;;;5005310;28;20246;-67
2022/05/30 07:06:35;;;;;;;17.53;6.20;;;;;;;;;;5005599;28;20273;-64
2022/05/30 07:09:03;;;;;;;22.27;6.17;;;;;;;;;;5005279;28;20716;-65
2022/05/30 07:11:33;;;;;;;16.53;5.40;;;;;;;;;;5006064;28;20200;-65
2022/05/30 07:14:03;;;;;;;14.37;5.37;;;;;;;;;;5007937;28;20625;-66
2022/05/30 07:16:34;;;;;;;14.90;5.50;;;;;;;;;;5001122;28;20215;-67
2022/05/30 07:19:09;;;;;;;12.90;5.00;;;;;;;;;;5005017;28;20214;-67
2022/05/30 07:21:41;;;;;;;12.03;5.70;;;;;;;;;;5002712;28;20231;-67
2022/05/30 07:24:12;;;;;;;10.40;3.90;;;;;;;;;;5007897;28;20211;-66
2022/05/30 07:26:40;;;;;;;11.27;4.00;;;;;;;;;;5007465;28;20200;-70
2022/05/30 07:29:12;;;;;;;9.30;4.10;;;;;;;;;;5002880;28;20638;-68
2022/05/30 07:31:42;;;;;;;10.60;3.90;;;;;;;;;;5008310;28;20199;-68
2022/05/30 07:34:10;;;;;;;8.50;3.80;;;;;;;;;;5001018;28;20200;-71
2022/05/30 07:36:38;;;;;;;24.93;4.13;;;;;;;;;;5005119;28;20203;-71
2022/05/30 07:39:08;;;;;;;11.07;3.43;;;;;;;;;;4999187;28;20199;-69
2022/05/30 07:41:39;;;;;;;7.63;3.73;;;;;;;;;;5003147;28;20192;-67
2022/05/30 07:44:09;;;;;;;8.23;3.30;;;;;;;;;;5004276;28;20657;-70
2022/05/30 07:46:44;;;;;;;6.27;2.70;;;;;;;;;;5000609;28;20196;-67
2022/05/30 07:49:15;;;;;;;6.53;3.20;;;;;;;;;;5002301;28;20200;-67
2022/05/30 07:51:45;;;;;;;8.20;2.90;;;;;;;;;;4998487;28;20308;-67
2022/05/30 07:54:12;;;;;;;6.53;2.87;;;;;;;;;;5005815;28;20203;-66
2022/05/30 07:56:47;;;;;;;3.93;2.43;;;;;;;;;;5000301;28;20188;-68
2022/05/30 07:59:18;;;;;;;6.03;2.63;;;;;;;;;;5004607;28;20196;-69
2022/05/30 08:01:47;;;;;;;4.57;2.20;;;;;;;;;;4998322;28;20242;-68
2022/05/30 08:04:16;;;;;;;6.97;2.17;;;;;;;;;;4997260;28;20297;-67
2022/05/30 08:06:45;;;;;;;7.83;2.73;;;;;;;;;;5007324;28;20271;-68
2022/05/30 08:09:12;;;;;;;4.37;1.87;;;;;;;;;;5003918;28;20491;-68
2022/05/30 08:11:40;;;;;;;4.30;2.33;;;;;;;;;;4997577;28;20196;-67
2022/05/30 08:14:10;;;;;;;3.17;2.00;;;;;;;;;;4996413;28;20207;-68
2022/05/30 08:16:40;;;;;;;2.90;1.70;;;;;;;;;;4997007;28;20680;-70
2022/05/30 08:19:18;;;;;;;2.50;1.43;;;;;;;;;;4993025;28;20212;-69
2022/05/30 08:22:07;;;;;;;3.37;1.70;;;;;;;;;;5006638;28;20657;-67
2022/05/30 08:24:35;;;;;;;3.50;1.73;;;;;;;;;;5003946;28;20704;-68
2022/05/30 08:27:03;;;;;;;4.57;1.83;;;;;;;;;;5003871;28;20191;-71
2022/05/30 08:29:30;;;;;;;3.97;1.57;;;;;;;;;;5006225;28;20191;-68
2022/05/30 08:31:58;;;;;;;4.70;1.50;;;;;;;;;;5003385;28;20191;-68
2022/05/30 08:34:25;;;;;;;3.37;1.43;;;;;;;;;;4997646;28;20200;-68
2022/05/30 08:36:52;;;;;;;3.67;1.50;;;;;;;;;;5004963;28;20748;-67
2022/05/30 08:42:07;;;;;;;5.17;1.40;;;;;;;;;;5001520;28;20273;-69
2022/05/30 08:44:36;;;;;;;2.47;1.23;;;;;;;;;;5002879;28;20223;-68
2022/05/30 08:47:12;;;;;;;2.07;1.30;;;;;;;;;;5002644;28;20196;-66
2022/05/30 08:49:42;;;;;;;3.23;1.60;;;;;;;;;;5000469;28;20199;-66
2022/05/30 08:52:18;;;;;;;5.90;1.33;;;;;;;;;;4999917;28;20224;-66
2022/05/30 08:55:07;;;;;;;3.20;1.53;;;;;;;;;;5003612;28;20214;-66
2022/05/30 08:57:34;;;;;;;2.57;1.13;;;;;;;;;;5002799;28;20254;-65
2022/05/30 09:00:09;;;;;;;2.30;1.13;;;;;;;;;;5005271;28;20203;-69
2022/05/30 09:02:42;;;;;;;1.90;1.00;;;;;;;;;;5006839;28;20215;-65
2022/05/30 09:05:17;;;;;;;2.20;1.43;;;;;;;;;;4995759;28;20640;-68
2022/05/30 09:08:09;;;;;;;2.63;1.20;;;;;;;;;;5004480;28;20258;-67
2022/05/30 09:10:51;;;;;;;1.60;1.00;;;;;;;;;;5005165;28;20267;-68
2022/05/30 09:13:29;;;;;;;3.87;1.53;;;;;;;;;;5005002;28;20253;-68
2022/05/30 09:16:25;;;;;;;5.33;1.20;;;;;;;;;;5004250;28;20289;-69
2022/05/30 09:18:54;;;;;;;5.30;1.30;;;;;;;;;;4999661;28;20639;-71
2022/05/30 09:21:29;;;;;;;2.73;0.97;;;;;;;;;;5004933;28;20255;-71
2022/05/30 09:23:56;;;;;;;2.30;0.83;;;;;;;;;;5007100;28;21660;-71
2022/05/30 09:26:25;;;;;;;1.37;0.87;;;;;;;;;;5010015;28;20206;-72
2022/05/30 09:28:56;;;;;;;2.70;0.93;;;;;;;;;;5005032;28;20592;-68
2022/05/30 09:31:41;;;;;;;2.80;0.93;;;;;;;;;;5007705;28;20253;-67
2022/05/30 09:34:28;;;;;;;3.13;0.93;;;;;;;;;;5007273;28;20199;-66
2022/05/30 09:36:55;;;;;;;2.40;1.20;;;;;;;;;;5006341;28;20207;-66
2022/05/30 09:39:22;;;;;;;4.10;0.90;;;;;;;;;;4994007;28;20666;-65
2022/05/30 09:41:57;;;;;;;2.10;1.10;;;;;;;;;;5004180;28;20212;-66
2022/05/30 09:44:27;;;;;;;7.23;1.10;;;;;;;;;;5005268;28;20255;-66
2022/05/30 09:46:56;;;;;;;3.23;1.20;;;;;;;;;;5006010;28;20200;-67
2022/05/30 09:49:25;;;;;;;2.23;0.80;;;;;;;;;;5001577;28;20787;-68
2022/05/30 09:52:00;;;;;;;1.33;0.83;;;;;;;;;;5005371;28;20208;-68
2022/05/30 09:54:32;;;;;;;3.73;0.90;;;;;;;;;;5009093;28;20240;-69
2022/05/30 09:57:17;;;;;;;1.60;0.80;;;;;;;;;;5003893;28;20208;-69
2022/05/30 09:59:47;;;;;;;2.43;0.83;;;;;;;;;;5004308;28;20214;-69
2022/05/30 10:02:25;;;;;;;5.03;1.00;;;;;;;;;;5005051;28;20267;-68
2022/05/30 10:05:01;;;;;;;1.53;0.80;;;;;;;;;;4994904;28;20646;-67
2022/05/30 10:07:30;;;;;;;1.00;0.90;;;;;;;;;;5009026;28;20215;-65
2022/05/30 10:09:59;;;;;;;4.13;1.00;;;;;;;;;;5010231;28;20204;-63
2022/05/30 10:12:35;;;;;;;2.63;0.93;;;;;;;;;;4997894;28;20211;-66
2022/05/30 10:15:22;;;;;;;2.53;0.93;;;;;;;;;;5003019;28;20191;-65
2022/05/30 10:17:50;;;;;;;1.87;1.03;;;;;;;;;;5000089;28;20196;-64
2022/05/30 10:20:23;;;;;;;1.83;0.87;;;;;;;;;;5009515;28;20206;-66
2022/05/30 10:28:54;;;;;;;0.90;0.67;;;;;;;;;;5003068;28;20216;-66
2022/05/30 10:31:22;;;;;;;1.53;0.80;;;;;;;;;;5004072;28;20226;-65
2022/05/30 10:34:15;;;;;;;2.57;0.70;;;;;;;;;;5004960;28;20215;-66
2022/05/30 10:36:45;;;;;;;2.30;0.60;;;;;;;;;;5006048;28;20200;-65
2022/05/30 10:39:16;;;;;;;1.77;0.97;;;;;;;;;;5003084;28;20200;-63
2022/05/30 10:41:50;;;;;;;2.43;1.00;;;;;;;;;;5004262;28;20227;-66
2022/05/30 10:44:26;;;;;;;3.70;0.63;;;;;;;;;;5004323;28;20546;-69
2022/05/30 10:46:57;;;;;;;1.17;0.70;;;;;;;;;;5008169;28;20230;-67
2022/05/30 10:49:26;;;;;;;3.30;0.63;;;;;;;;;;5001516;28;20218;-69
2022/05/30 10:52:02;;;;;;;1.93;0.80;;;;;;;;;;5006087;28;20216;-64
2022/05/30 10:54:41;;;;;;;1.70;0.80;;;;;;;;;;5003548;28;20254;-64
2022/05/30 10:57:11;;;;;;;0.77;0.60;;;;;;;;;;5006035;28;20203;-65
2022/05/30 10:59:42;;;;;;;1.67;0.80;;;;;;;;;;5003568;28;20257;-65
2022/05/30 11:02:13;;;;;;;0.90;0.67;;;;;;;;;;5007943;28;20242;-68
2022/05/30 11:04:52;;;;;;;0.80;0.67;;;;;;;;;;5000559;28;20231;-68
2022/05/30 11:07:43;;;;;;;2.07;1.10;;;;;;;;;;5018176;28;20211;-68
2022/05/30 11:10:26;;;;;;;3.90;0.83;;;;;;;;;;5002476;28;20188;-69
2022/05/30 11:13:00;;;;;;;2.57;0.90;;;;;;;;;;5004571;28;20739;-69
2022/05/30 11:15:46;;;;;;;1.13;1.00;;;;;;;;;;4997673;28;20572;-69
2022/05/30 11:18:30;;;;;;;4.10;1.10;;;;;;;;;;5003333;28;20695;-69
2022/05/30 11:21:13;;;;;;;0.90;0.70;;;;;;;;;;5003674;28;20315;-72
2022/05/30 11:23:40;;;;;;;0.90;0.70;;;;;;;;;;5002968;28;20231;-69
2022/05/30 11:26:26;;;;;;;1.10;0.80;;;;;;;;;;5006285;28;20207;-69
2022/05/30 11:29:15;;;;;;;1.90;1.07;;;;;;;;;;4999917;28;20611;-69
2022/05/30 11:32:01;;;;;;;2.47;0.77;;;;;;;;;;5000250;28;20211;-72
2022/05/30 11:34:47;;;;;;;2.10;1.20;;;;;;;;;;5001863;28;20293;-68
2022/05/30 11:37:23;;;;;;;1.00;0.83;;;;;;;;;;5004843;28;20208;-65
2022/05/30 11:40:10;;;;;;;1.27;0.80;;;;;;;;;;5005020;28;20212;-65
2022/05/30 11:43:04;;;;;;;1.37;0.77;;;;;;;;;;4999248;28;20231;-70
2022/05/30 11:45:40;;;;;;;1.67;0.77;;;;;;;;;;4996762;28;20239;-68
2022/05/30 11:48:33;;;;;;;1.87;0.93;;;;;;;;;;5004483;28;20200;-67
2022/05/30 11:51:11;;;;;;;1.90;0.73;;;;;;;;;;5000405;28;20299;-66
2022/05/30 11:54:01;;;;;;;2.63;1.00;;;;;;;;;;5004347;28;20257;-66
2022/05/30 11:56:53;;;;;;;0.90;0.80;;;;;;;;;;5003296;28;20225;-65
2022/05/30 11:59:40;;;;;;;1.93;1.00;;;;;;;;;;4996489;28;20204;-66
2022/05/30 12:02:14;;;;;;;1.27;0.90;;;;;;;;;;5006846;28;20223;-66
2022/05/30 12:05:11;;;;;;;3.03;1.10;;;;;;;;;;4996838;28;20228;-66
2022/05/30 12:07:57;;;;;;;1.10;0.80;;;;;;;;;;5005564;28;20212;-69
2022/05/30 12:10:32;;;;;;;1.27;0.80;;;;;;;;;;4995115;28;20200;-68
2022/05/30 12:13:31;;;;;;;1.30;0.60;;;;;;;;;;4995663;28;20251;-69
2022/05/30 12:16:18;;;;;;;3.00;0.80;;;;;;;;;;4998670;28;20220;-70
2022/05/30 12:24:29;;;;;;;1.90;1.00;;;;;;;;;;5002905;28;20254;-72
2022/05/30 12:27:03;;;;;;;1.17;0.80;;;;;;;;;;5006561;28;20207;-72
2022/05/30 12:29:42;;;;;;;1.43;0.80;;;;;;;;;;5004104;28;20198;-72
2022/05/30 12:32:19;;;;;;;2.40;1.10;;;;;;;;;;5000400;28;20188;-67
2022/05/30 12:35:18;;;;;;;1.00;0.90;;;;;;;;;;5000181;28;20204;-70
2022/05/30 12:38:14;;;;;;;0.70;0.70;;;;;;;;;;5003624;28;20199;-69
2022/05/30 12:40:54;;;;;;;1.73;0.70;;;;;;;;;;5002742;28;20246;-66
2022/05/30 12:43:22;;;;;;;1.17;0.90;;;;;;;;;;4998127;28;20610;-65
2022/05/30 12:45:56;;;;;;;4.63;1.00;;;;;;;;;;5005183;28;20200;-68
2022/05/30 12:48:25;;;;;;;2.97;0.93;;;;;;;;;;5004002;28;20824;-69
2022/05/30 12:50:53;;;;;;;4.77;1.00;;;;;;;;;;4993573;28;20200;-67
2022/05/30 12:53:24;;;;;;;3.60;0.90;;;;;;;;;;4999376;28;20605;-66
2022/05/30 12:55:57;;;;;;;2.60;0.90;;;;;;;;;;5001450;28;20222;-66
2022/05/30 12:58:29;;;;;;;1.57;1.10;;;;;;;;;;5004056;28;20598;-66
2022/05/30 13:01:20;;;;;;;1.50;1.00;;;;;;;;;;5008272;28;20231;-65
2022/05/30 13:04:07;;;;;;;6.43;1.00;;;;;;;;;;4995959;28;20227;-68
2022/05/30 13:06:57;;;;;;;1.63;1.00;;;;;;;;;;5007305;28;20783;-69
2022/05/30 13:09:35;;;;;;;4.00;1.10;;;;;;;;;;5006336;28;20191;-69
2022/05/30 13:12:23;;;;;;;1.17;0.80;;;;;;;;;;5010192;28;20246;-67
2022/05/30 13:15:03;;;;;;;1.67;0.77;;;;;;;;;;5004794;28;20196;-67
2022/05/30 13:17:50;;;;;;;2.73;0.90;;;;;;;;;;5011006;28;20200;-68
2022/05/30 13:20:23;;;;;;;7.60;1.00;;;;;;;;;;5007127;28;20529;-66
2022/05/30 13:22:54;;;;;;;1.17;0.67;;;;;;;;;;5005470;28;20688;-66
2022/05/30 13:25:48;;;;;;;1.60;0.63;;;;;;;;;;5004723;28;20966;-67
2022/05/30 13:28:28;;;;;;;3.07;1.03;;;;;;;;;;5001442;28;20208;-69
2022/05/30 13:30:58;;;;;;;2.20;1.20;;;;;;;;;;4987489;28;20295;-68
2022/05/30 13:33:32;;;;;;;4.70;1.20;;;;;;;;;;4987061;28;20242;-69
2022/05/30 13:36:00;;;;;;;1.27;0.87;;;;;;;;;;5009975;28;20211;-69
2022/05/30 13:38:39;;;;;;;1.53;0.90;;;;;;;;;;5013522;28;20196;-69
2022/05/30 13:41:23;;;;;;;2.13;0.80;;;;;;;;;;5002830;28;20216;-69
2022/05/30 13:43:52;;;;;;;2.67;0.93;;;;;;;;;;5009433;28;20191;-70
2022/05/30 13:46:49;;;;;;;2.47;0.97;;;;;;;;;;5010872;28;20192;-69
2022/05/30 13:49:40;;;;;;;1.30;0.80;;;;;;;;;;5009418;28;20191;-70
2022/05/30 13:52:22;;;;;;;1.40;0.93;;;;;;;;;;5004926;28;20308;-67
2022/05/30 13:55:11;;;;;;;5.50;0.97;;;;;;;;;;5013395;28;20208;-67
2022/05/30 13:57:41;;;;;;;1.33;0.70;;;;;;;;;;5007414;28;20208;-66
2022/05/30 14:00:11;;;;;;;6.10;1.03;;;;;;;;;;5011237;28;20831;-66
2022/05/30 14:02:43;;;;;;;0.90;0.77;;;;;;;;;;5012370;28;20621;-67
2022/05/30 14:05:13;;;;;;;4.43;1.10;;;;;;;;;;4989941;28;20601;-70
2022/05/30 14:07:49;;;;;;;2.07;1.10;;;;;;;;;;5009722;28;20196;-69
2022/05/30 14:10:27;;;;;;;1.13;0.73;;;;;;;;;;5000828;28;20202;-65
2022/05/30 14:13:36;;;;;;;2.07;0.80;;;;;;;;;;5005159;28;20196;-66
2022/05/30 14:16:28;;;;;;;2.93;1.03;;;;;;;;;;4996907;28;20216;-68
2022/05/30 14:19:02;;;;;;;2.10;1.00;;;;;;;;;;5009091;28;20578;-65
2022/05/30 14:21:36;;;;;;;2.27;1.03;;;;;;;;;;5006734;28;20273;-67
2022/05/30 14:24:16;;;;;;;0.87;0.70;;;;;;;;;;5003898;28;20200;-69
2022/05/30 14:26:44;;;;;;;3.23;0.83;;;;;;;;;;5007046;28;20540;-68
2022/05/30 14:29:24;;;;;;;1.40;0.70;;;;;;;;;;5001108;28;20215;-67
2022/05/30 14:32:03;;;;;;;1.80;1.00;;;;;;;;;;4998727;28;20215;-66
2022/05/30 14:34:42;;;;;;;1.40;0.87;;;;;;;;;;5004190;28;20238;-66
2022/05/30 14:37:20;;;;;;;1.10;0.90;;;;;;;;;;5001694;28;20211;-68
2022/05/30 14:39:58;;;;;;;1.70;0.90;;;;;;;;;;5004445;28;20218;-68
2022/05/30 14:42:27;;;;;;;1.57;0.93;;;;;;;;;;5007087;28;20663;-70
2022/05/30 14:45:06;;;;;;;1.07;0.83;;;;;;;;;;5003134;28;20222;-68
2022/05/30 14:47:37;;;;;;;2.10;1.03;;;;;;;;;;4994045;28;20200;-69
2022/05/30 14:50:13;;;;;;;1.00;0.80;;;;;;;;;;5005690;28;20238;-67
2022/05/30 14:52:49;;;;;;;1.27;0.80;;;;;;;;;;5004750;28;20216;-68
2022/05/30 14:55:33;;;;;;;1.10;0.73;;;;;;;;;;5006201;28;20257;-66
2022/05/30 14:58:10;;;;;;;1.60;0.90;;;;;;;;;;5001500;28;20203;-68
2022/05/30 15:00:41;;;;;;;2.63;0.70;;;;;;;;;;4999204;28;20248;-66
2022/05/30 15:05:57;;;;;;;1.37;0.67;;;;;;;;;;5005457;28;20220;-65
2022/05/30 15:08:34;;;;;;;2.70;0.60;;;;;;;;;;5006249;28;20195;-65
2022/05/30 15:11:14;;;;;;;0.83;0.73;;;;;;;;;;5001068;28;20193;-66
2022/05/30 15:13:45;;;;;;;1.50;0.80;;;;;;;;;;5006285;28;20188;-67
2022/05/30 15:16:16;;;;;;;1.20;0.80;;;;;;;;;;4993399;28;20212;-66
2022/05/30 15:18:44;;;;;;;0.90;0.67;;;;;;;;;;4986634;28;20231;-65
2022/05/30 15:21:20;;;;;;;1.70;0.70;;;;;;;;;;5001739;28;20207;-65
2022/05/30 15:24:08;;;;;;;1.17;0.90;;;;;;;;;;5006491;28;20231;-63
2022/05/30 15:26:47;;;;;;;1.00;0.70;;;;;;;;;;5000162;28;20196;-67
2022/05/30 15:29:19;;;;;;;1.00;0.70;;;;;;;;;;4998713;28;20218;-66
2022/05/30 15:31:51;;;;;;;0.70;0.70;;;;;;;;;;5003105;28;20188;-65
2022/05/30 15:34:22;;;;;;;1.27;0.87;;;;;;;;;;5005194;28;20211;-65
2022/05/30 15:36:55;;;;;;;1.23;1.00;;;;;;;;;;5007585;28;20199;-65
2022/05/30 15:39:24;;;;;;;2.37;1.30;;;;;;;;;;4991702;28;20691;-66